Airfield :
LOGIN :

Register | Disclaimer

   EN    FR    IT 

 










Legend :    VFR   Marginal VFR   IFR   Intensive IFR   Very Intensive IFR
Visi :
Ceiling :
>= 8 km
>= 3000ft
5 to 8 km
1000 to 3000 ft
1500m to 5 km
500 to 1000 ft
800 to 1500m
200 to 500 ft
< 800m
< 200 ft
Symbols :   Thunderstorms  Fog  Heavy snow  Heavy precipitations  Wind > 20 kt
SIGMETs :     Misc.  Thunderstorms  Icing  Turbulence  Mountain Waves  Volcanic Ashes






- Airport Elevation : 32 ft
- IATA code : LKZ


EGUL - RAF Lakenheath

CURRENT METAR :
  • 112156Z AUTO 23004KT 9999 CLR 01/00 A2956 RMK AO2 SLP014 T00101002 $

EXPIRED METARs :
  • 112056Z AUTO 24006KT 9999 CLR 02/01 A2956 RMK AO2 SLP014 T00200007 52013 $
  • 111956Z 26010KT 9999 CLR 04/02 A2954 RMK AO2A SLP007 T00380020 $

TAF TAF EGUL
Valid from the 11 at 21:00 until the 13 at 03:00 UTC


112100Z 1121/1303 25009KT 9999 SCT025 QNH2939INS
BECMG 1208/1209 17009KT 9999 BKN030 BKN090 620302 620903 QNH2921INS
BECMG 1210/1211 17010G25KT 8000 -RA OVC010 620309 QNH2875INS
TEMPO 1212/1218 17020G30KT 510003
BECMG 1220/1221 17012KT 9000 -DZ OVC010 620403 QNH2863INS TX08/1218Z TN00/1204Z LAST NO AMDS AFT 1122 NEXT 1205



MET'MAP, your aeronautical weather chart ! - Copyright ORBIFLY December 2007 - Disclaimer

ORBIFLY MET'MAP TEAM :

Programming & Development : Alexandra Zaïnal
Concept & original design : Baudouin d'Aumeries
Assistance for programming : Marc-Olivier Méhu
Technical & hardware support : Manuel Goepfert

Contact : metmap@orbifly.com




SOURCES & CREDITS :

   NOAA